Stoner, Colorado
Current Conditions -  °F | °C
As of 2:53 PM on Wednesday 22 Oct 2014 (Local Time) from KCEZ Reporting Station
Clear Clear  
Wind Chill: 68°   Ceiling: Unl
Heat Index: 68°   Visibility: 10mi
Dew Point: 36°   Wind: 14mph
Humidity: 31%   Direction: 290°WNW
Pressure: 30.17"   Gusts: NA
Location:  37.5429°N, 108.35°W
Report Text: KCEZ 222053Z AUTO 29012KT 10SM CLR 20/02 A3017 RMK AO2 SLP166 T02000022 58013
Loading
Personal Weather Stations






























Interactive Weather Map
Tropical Storm Tracking
New forecast layout! Learn more

10-Day Weather Forecast

Advertisements
Track Severe Weather on mobile